createdAt,value
2018-04-01T00:03:00.286Z,27.70
2018-04-01T00:06:02.241Z,27.50
2018-04-01T00:09:04.130Z,28.10
2018-04-01T00:12:06.096Z,28.07
2018-04-01T00:15:08.111Z,27.27
2018-04-01T00:18:10.054Z,27.93
2018-04-01T00:21:11.974Z,26.70
2018-04-01T00:24:13.935Z,26.73
2018-04-01T00:27:15.816Z,27.67
2018-04-01T00:30:17.862Z,27.00
2018-04-01T00:33:19.909Z,29.60
2018-04-01T00:36:21.820Z,28.33
2018-04-01T00:39:25.009Z,28.07
2018-04-01T00:42:26.886Z,29.27
2018-04-01T00:45:28.825Z,28.93
2018-04-01T00:48:31.423Z,29.90
2018-04-01T00:51:33.446Z,30.10
2018-04-01T00:54:36.240Z,28.53
2018-04-01T00:57:38.176Z,29.93
2018-04-01T01:00:40.074Z,29.10
2018-04-01T01:03:42.000Z,29.90
2018-04-01T01:06:43.906Z,32.57
2018-04-01T01:09:45.852Z,30.40
2018-04-01T01:12:47.805Z,30.57
2018-04-01T01:15:49.679Z,29.90
2018-04-01T01:18:52.979Z,28.40
2018-04-01T01:21:54.885Z,29.53
2018-04-01T01:24:56.819Z,29.30
2018-04-01T01:27:58.701Z,33.20
2018-04-01T01:31:00.622Z,33.30
2018-04-01T01:34:02.582Z,33.20
2018-04-01T01:37:04.510Z,33.97
2018-04-01T01:40:06.467Z,33.40
2018-04-01T01:43:08.407Z,33.73
2018-04-01T01:46:10.326Z,33.70
2018-04-01T01:49:12.316Z,34.90
2018-04-01T01:52:14.264Z,36.13
2018-04-01T01:55:17.842Z,34.50
2018-04-01T01:58:19.797Z,32.87
2018-04-01T02:01:21.786Z,34.50
2018-04-01T02:04:23.645Z,34.40
2018-04-01T02:07:26.240Z,34.97
2018-04-01T02:10:28.131Z,33.27
2018-04-01T02:13:31.286Z,34.70
2018-04-01T02:16:33.231Z,34.40
2018-04-01T02:19:35.140Z,33.30
2018-04-01T02:22:40.178Z,34.13
2018-04-01T02:25:42.145Z,34.80
2018-04-01T02:28:44.087Z,33.77
2018-04-01T02:31:46.037Z,36.23
2018-04-01T02:34:47.986Z,36.07
2018-04-01T02:37:49.942Z,35.00
2018-04-01T02:40:51.852Z,36.83
2018-04-01T02:43:53.765Z,36.20
2018-04-01T02:46:55.654Z,36.83
2018-04-01T02:49:57.631Z,38.43
2018-04-01T02:53:00.616Z,38.80
2018-04-01T02:56:02.558Z,38.20
2018-04-01T02:59:04.611Z,41.60
2018-04-01T03:02:06.549Z,41.80
2018-04-01T03:05:08.436Z,43.10
2018-04-01T03:08:10.323Z,41.03
2018-04-01T03:11:12.228Z,42.30
2018-04-01T03:14:14.145Z,40.30
2018-04-01T03:17:16.076Z,38.87
2018-04-01T03:20:17.999Z,37.33
2018-04-01T03:23:19.993Z,38.17
2018-04-01T03:26:21.897Z,37.50
2018-04-01T03:29:23.856Z,39.83
2018-04-01T03:32:25.788Z,41.90
2018-04-01T03:35:27.737Z,40.83
2018-04-01T03:38:29.638Z,42.77
2018-04-01T03:41:31.577Z,42.50
2018-04-01T03:44:33.652Z,43.37
2018-04-01T03:47:35.683Z,42.20
2018-04-01T03:50:37.622Z,42.07
2018-04-01T03:53:39.588Z,42.93
2018-04-01T03:56:41.607Z,45.00
2018-04-01T03:59:43.562Z,44.20
2018-04-01T04:02:45.489Z,41.20
2018-04-01T04:05:47.433Z,44.20
2018-04-01T04:08:49.352Z,45.57
2018-04-01T04:11:51.313Z,44.20
2018-04-01T04:14:53.274Z,43.27
2018-04-01T04:17:55.148Z,43.27
2018-04-01T04:20:57.112Z,44.23
2018-04-01T04:23:59.165Z,44.47
2018-04-01T04:27:01.102Z,45.43
2018-04-01T04:30:02.995Z,47.30
2018-04-01T04:33:04.916Z,47.53
2018-04-01T04:36:06.798Z,44.90
2018-04-01T04:39:08.810Z,44.40
2018-04-01T04:42:10.872Z,42.13
2018-04-01T04:45:12.996Z,43.43
2018-04-01T04:48:14.889Z,41.30
2018-04-01T04:51:16.824Z,38.50
2018-04-01T04:54:18.760Z,38.40
2018-04-01T04:57:20.692Z,40.30
2018-04-01T05:00:22.572Z,39.37
2018-04-01T05:03:24.518Z,38.10
2018-04-01T05:06:26.467Z,36.73
2018-04-01T05:09:28.404Z,34.30
2018-04-01T05:12:30.322Z,33.03
2018-04-01T05:15:32.268Z,31.90
2018-04-01T05:18:34.248Z,31.27
2018-04-01T05:21:36.203Z,32.53
2018-04-01T05:24:38.148Z,32.77
2018-04-01T05:27:40.045Z,32.23
2018-04-01T05:30:41.994Z,32.33
2018-04-01T05:33:43.895Z,31.63
2018-04-01T05:36:45.847Z,32.33
2018-04-01T05:39:47.773Z,31.03
2018-04-01T05:42:49.700Z,32.70
2018-04-01T05:45:51.690Z,33.80
2018-04-01T05:48:53.633Z,34.30
2018-04-01T05:51:55.688Z,34.53
2018-04-01T05:54:57.576Z,34.13
2018-04-01T05:57:59.587Z,35.00
2018-04-01T06:01:01.513Z,32.60
2018-04-01T06:04:03.513Z,34.73
2018-04-01T06:07:05.432Z,33.10
2018-04-01T06:10:07.369Z,31.70
2018-04-01T06:13:09.329Z,29.13
2018-04-01T06:16:11.244Z,29.83
2018-04-01T06:19:13.225Z,30.70
2018-04-01T06:22:15.110Z,30.07
2018-04-01T06:25:17.130Z,29.40
2018-04-01T06:28:19.058Z,30.60
2018-04-01T06:31:20.975Z,30.53
2018-04-01T06:34:22.970Z,31.53
2018-04-01T06:37:24.919Z,31.70
2018-04-01T06:40:26.901Z,30.23
2018-04-01T06:43:28.779Z,28.77
2018-04-01T06:46:30.711Z,31.10
2018-04-01T06:49:32.757Z,31.07
2018-04-01T06:52:34.609Z,30.73
2018-04-01T06:55:36.578Z,29.43
2018-04-01T06:58:38.509Z,30.90
2018-04-01T07:01:40.443Z,29.10
2018-04-01T07:04:42.376Z,28.60
2018-04-01T07:07:44.315Z,29.57
2018-04-01T07:10:46.355Z,28.13
2018-04-01T07:13:48.261Z,29.13
2018-04-01T07:16:50.170Z,30.00
2018-04-01T07:19:52.085Z,27.23
2018-04-01T07:22:54.025Z,29.90
2018-04-01T07:25:55.971Z,28.50
2018-04-01T07:28:57.946Z,27.03
2018-04-01T07:31:59.996Z,28.10
2018-04-01T07:35:01.925Z,27.77
2018-04-01T07:38:03.856Z,27.53
2018-04-01T07:41:05.840Z,27.37
2018-04-01T07:44:08.944Z,29.07
2018-04-01T07:47:10.974Z,27.90
2018-04-01T07:50:12.910Z,27.37
2018-04-01T07:53:14.868Z,26.23
2018-04-01T07:56:16.814Z,26.80
2018-04-01T07:59:18.872Z,24.80
2018-04-01T08:02:20.849Z,26.10
2018-04-01T08:05:22.872Z,26.00
2018-04-01T08:08:24.765Z,24.37
2018-04-01T08:11:26.771Z,26.73
2018-04-01T08:14:28.721Z,26.33
2018-04-01T08:17:30.673Z,25.40
2018-04-01T08:20:32.626Z,27.67
2018-04-01T08:23:34.549Z,26.03
2018-04-01T08:26:36.496Z,24.40
2018-04-01T08:29:38.419Z,21.77
2018-04-01T08:32:40.346Z,21.97
2018-04-01T08:35:42.257Z,21.70
2018-04-01T08:38:44.208Z,19.17
2018-04-01T08:41:46.097Z,21.60
2018-04-01T08:44:48.012Z,19.53
2018-04-01T08:47:50.057Z,20.30
2018-04-01T08:50:51.963Z,20.00
2018-04-01T08:53:53.959Z,22.27
2018-04-01T08:56:56.005Z,21.53
2018-04-01T08:59:58.056Z,21.03
2018-04-01T09:02:59.981Z,20.10
2018-04-01T09:06:01.962Z,21.67
2018-04-01T09:09:03.896Z,20.77
2018-04-01T09:12:05.855Z,20.90
2018-04-01T09:15:08.310Z,21.23
2018-04-01T09:18:10.268Z,20.67
2018-04-01T09:21:12.182Z,20.83
2018-04-01T09:24:14.106Z,20.43
2018-04-01T09:27:17.016Z,19.70
2018-04-01T09:30:18.950Z,21.27
2018-04-01T09:33:20.840Z,22.10
2018-04-01T09:36:22.791Z,21.37
2018-04-01T09:39:24.698Z,22.67
2018-04-01T09:42:26.641Z,20.37
2018-04-01T09:45:28.657Z,21.00
2018-04-01T09:48:30.772Z,21.37
2018-04-01T09:51:32.708Z,19.67
2018-04-01T09:54:34.622Z,22.07
2018-04-01T09:57:36.578Z,22.20
2018-04-01T10:00:56.576Z,22.67
2018-04-01T10:03:59.139Z,21.67
2018-04-01T10:07:01.612Z,18.97
2018-04-01T10:10:04.151Z,19.67
2018-04-01T10:13:06.672Z,18.53
2018-04-01T10:16:09.312Z,19.10
2018-04-01T10:19:11.852Z,18.20
2018-04-01T10:22:14.413Z,17.93
2018-04-01T10:25:16.889Z,19.50
2018-04-01T10:28:19.407Z,19.60
2018-04-01T10:31:21.865Z,20.20
2018-04-01T10:34:24.379Z,19.73
2018-04-01T10:37:27.000Z,19.13
2018-04-01T10:40:29.549Z,19.47
2018-04-01T10:43:32.143Z,20.00
2018-04-01T10:46:34.630Z,20.90
2018-04-01T10:49:37.142Z,20.00
2018-04-01T10:52:39.817Z,19.60
2018-04-01T10:55:41.727Z,21.20
2018-04-01T10:58:43.682Z,20.27
2018-04-01T11:01:45.682Z,21.00
2018-04-01T11:04:47.671Z,21.40
2018-04-01T11:07:49.647Z,19.00
2018-04-01T11:10:51.584Z,19.30
2018-04-01T11:13:53.576Z,16.57
2018-04-01T11:16:55.528Z,17.57
2018-04-01T11:19:57.453Z,16.80
2018-04-01T11:23:00.048Z,17.50
2018-04-01T11:26:02.048Z,17.10
2018-04-01T11:29:04.411Z,17.47
2018-04-01T11:32:06.384Z,15.33
2018-04-01T11:35:08.287Z,17.07
2018-04-01T11:38:10.394Z,15.87
2018-04-01T11:41:12.384Z,15.27
2018-04-01T11:44:14.393Z,15.03
2018-04-01T11:47:16.354Z,16.47
2018-04-01T11:50:18.297Z,16.10
2018-04-01T11:53:20.243Z,17.20
2018-04-01T11:56:22.267Z,18.07
2018-04-01T11:59:24.237Z,19.43
2018-04-01T12:02:26.289Z,21.60
2018-04-01T12:05:28.239Z,22.90
2018-04-01T12:08:30.187Z,22.00
2018-04-01T12:11:32.241Z,22.27
2018-04-01T12:14:34.194Z,24.40
2018-04-01T12:17:36.137Z,31.60
2018-04-01T12:20:38.198Z,20.10
2018-04-01T12:23:40.088Z,19.87
2018-04-01T12:26:42.090Z,25.60
2018-04-01T12:29:44.040Z,21.27
2018-04-01T12:32:46.033Z,20.30
2018-04-01T12:35:48.039Z,17.53
2018-04-01T12:38:50.894Z,16.77
2018-04-01T12:41:52.857Z,16.60
2018-04-01T12:44:54.783Z,16.53
2018-04-01T12:47:56.769Z,17.10
2018-04-01T12:50:58.714Z,17.53
2018-04-01T12:54:00.650Z,17.50
2018-04-01T12:57:02.593Z,16.40
2018-04-01T13:00:04.507Z,16.40
2018-04-01T13:03:06.443Z,14.77
2018-04-01T13:06:08.414Z,13.43
2018-04-01T13:09:10.340Z,14.97
2018-04-01T13:12:12.344Z,12.20
2018-04-01T13:15:14.279Z,12.10
2018-04-01T13:18:16.255Z,11.70
2018-04-01T13:21:19.901Z,12.20
2018-04-01T13:24:21.838Z,13.27
2018-04-01T13:27:23.770Z,13.00
2018-04-01T13:30:25.720Z,13.57
2018-04-01T13:33:27.620Z,13.10
2018-04-01T13:36:29.585Z,14.40
2018-04-01T13:39:31.545Z,14.77
2018-04-01T13:42:33.486Z,16.33
2018-04-01T13:45:35.457Z,16.77
2018-04-01T13:48:37.380Z,15.20
2018-04-01T13:51:39.389Z,15.10
2018-04-01T13:54:41.310Z,15.40
2018-04-01T13:57:43.301Z,16.10
2018-04-01T14:00:45.284Z,16.57
2018-04-01T14:03:47.245Z,16.90
2018-04-01T14:06:49.166Z,16.70
2018-04-01T14:09:51.144Z,17.80
2018-04-01T14:12:53.151Z,16.63
2018-04-01T14:15:55.215Z,15.80
2018-04-01T14:18:57.271Z,15.53
2018-04-01T14:21:59.223Z,14.77
2018-04-01T14:25:01.165Z,15.30
2018-04-01T14:28:03.244Z,15.40
2018-04-01T14:31:05.210Z,15.17
2018-04-01T14:34:07.175Z,15.83
2018-04-01T14:37:09.171Z,14.80
2018-04-01T14:40:11.182Z,15.73
2018-04-01T14:43:13.147Z,14.97
2018-04-01T14:46:15.051Z,15.47
2018-04-01T14:49:17.008Z,14.13
2018-04-01T14:52:18.941Z,14.80
2018-04-01T14:55:20.915Z,13.60
2018-04-01T14:58:22.870Z,14.10
2018-04-01T15:01:24.880Z,14.53
2018-04-01T15:04:26.800Z,14.50
2018-04-01T15:07:28.787Z,13.97
2018-04-01T15:10:30.675Z,14.07
2018-04-01T15:13:32.755Z,14.87
2018-04-01T15:16:34.672Z,14.60
2018-04-01T15:19:36.669Z,14.30
2018-04-01T15:22:38.635Z,15.40
2018-04-01T15:25:40.659Z,14.67
2018-04-01T15:28:42.609Z,14.50
2018-04-01T15:31:44.585Z,13.53
2018-04-01T15:34:46.521Z,14.93
2018-04-01T15:37:48.509Z,14.00
2018-04-01T15:40:50.486Z,16.20
2018-04-01T15:43:52.403Z,14.70
2018-04-01T15:46:54.402Z,16.17
2018-04-01T15:49:56.374Z,16.60
2018-04-01T15:52:58.392Z,14.57
2018-04-01T15:56:00.343Z,14.90
2018-04-01T15:59:02.226Z,15.50
2018-04-01T16:02:04.144Z,15.30
2018-04-01T16:05:06.029Z,16.53
2018-04-01T16:08:07.980Z,15.30
2018-04-01T16:11:09.920Z,19.50
2018-04-01T16:14:11.875Z,16.23
2018-04-01T16:17:13.787Z,15.97
2018-04-01T16:20:15.748Z,16.40
2018-04-01T16:23:17.886Z,16.23
2018-04-01T16:26:19.840Z,17.50
2018-04-01T16:29:21.777Z,18.00
2018-04-01T16:32:23.831Z,17.20
2018-04-01T16:35:25.787Z,17.90
2018-04-01T16:38:27.761Z,17.07
2018-04-01T16:41:29.707Z,16.90
2018-04-01T16:44:31.732Z,17.07
2018-04-01T16:47:33.666Z,16.37
2018-04-01T16:50:35.606Z,16.40
2018-04-01T16:53:37.548Z,16.13
2018-04-01T16:56:39.455Z,16.57
2018-04-01T16:59:41.521Z,17.00
2018-04-01T17:02:43.433Z,16.47
2018-04-01T17:05:45.399Z,17.30
2018-04-01T17:08:47.356Z,16.40
2018-04-01T17:11:49.283Z,14.73
2018-04-01T17:14:51.323Z,16.70
2018-04-01T17:17:53.372Z,16.97
2018-04-01T17:20:55.422Z,16.07
2018-04-01T17:23:57.358Z,15.47
2018-04-01T17:26:59.251Z,16.90
2018-04-01T17:30:01.287Z,18.37
2018-04-01T17:33:03.243Z,17.27
2018-04-01T17:36:05.172Z,18.30
2018-04-01T17:39:07.223Z,19.40
2018-04-01T17:42:09.202Z,19.17
2018-04-01T17:45:11.113Z,18.40
2018-04-01T17:48:13.047Z,19.63
2018-04-01T17:51:14.980Z,17.73
2018-04-01T17:54:16.911Z,17.47
2018-04-01T17:57:18.913Z,17.40
2018-04-01T18:00:20.861Z,19.67
2018-04-01T18:03:22.906Z,19.77
2018-04-01T18:06:24.802Z,19.30
2018-04-01T18:09:26.809Z,18.30
2018-04-01T18:12:28.883Z,19.50
2018-04-01T18:15:30.794Z,17.47
2018-04-01T18:18:32.717Z,18.00
2018-04-01T18:21:34.643Z,18.70
2018-04-01T18:24:36.859Z,18.97
2018-04-01T18:27:38.911Z,18.40
2018-04-01T18:30:40.845Z,17.97
2018-04-01T18:33:42.788Z,18.27
2018-04-01T18:36:44.757Z,18.27
2018-04-01T18:39:46.684Z,19.13
2018-04-01T18:42:48.769Z,21.63
2018-04-01T18:45:50.714Z,23.50
2018-04-01T18:48:52.693Z,23.30
2018-04-01T18:51:54.662Z,22.40
2018-04-01T18:54:56.652Z,23.10
2018-04-01T18:57:58.702Z,23.80
2018-04-01T19:01:00.661Z,22.90
2018-04-01T19:04:02.716Z,23.00
2018-04-01T19:07:04.663Z,25.20
2018-04-01T19:10:06.703Z,25.57
2018-04-01T19:13:08.658Z,27.47
2018-04-01T19:16:11.223Z,25.73
2018-04-01T19:22:23.567Z,25.43
2018-04-01T19:25:26.058Z,22.23
2018-04-01T19:28:28.575Z,24.37
2018-04-01T19:31:31.165Z,24.80
2018-04-01T19:34:33.669Z,24.73
2018-04-01T19:37:36.118Z,24.70
2018-04-01T19:40:38.675Z,26.30
2018-04-01T19:43:41.197Z,26.80
2018-04-01T19:46:43.767Z,27.80
2018-04-01T19:49:46.221Z,29.00
2018-04-01T19:52:48.751Z,30.03
2018-04-01T19:55:51.253Z,31.90
2018-04-01T19:58:53.848Z,31.23
2018-04-01T20:01:56.310Z,32.43
2018-04-01T20:04:58.783Z,32.93
2018-04-01T20:08:01.448Z,33.30
2018-04-01T20:11:03.998Z,33.93
2018-04-01T20:14:06.825Z,34.87
2018-04-01T20:17:09.852Z,33.60
2018-04-01T20:20:12.333Z,33.17
2018-04-01T20:23:14.813Z,34.80
2018-04-01T20:26:17.345Z,31.67
2018-04-01T20:29:19.935Z,32.40
2018-04-01T20:32:22.505Z,31.93
2018-04-01T20:35:25.055Z,33.50
2018-04-01T20:38:27.508Z,31.93
2018-04-01T20:41:31.419Z,31.03
2018-04-01T20:44:33.942Z,31.80
2018-04-01T20:47:36.465Z,30.63
2018-04-01T20:50:39.058Z,30.80
2018-04-01T20:53:41.615Z,29.97
2018-04-01T20:56:44.200Z,29.60
2018-04-01T20:59:46.696Z,28.43
2018-04-01T21:02:49.314Z,28.83
2018-04-01T21:05:51.805Z,30.00
2018-04-01T21:08:54.246Z,31.50
2018-04-01T21:11:56.748Z,34.80
2018-04-01T21:14:59.269Z,34.53
2018-04-01T21:18:01.796Z,38.80
2018-04-01T21:21:04.381Z,41.03
2018-04-01T21:24:06.905Z,42.23
2018-04-01T21:27:09.396Z,46.10
2018-04-01T21:30:11.897Z,46.63
2018-04-01T21:33:14.365Z,46.63
2018-04-01T21:36:16.874Z,44.03
2018-04-01T21:39:19.375Z,41.30
2018-04-01T21:42:21.884Z,39.30
2018-04-01T21:45:24.430Z,36.30
2018-04-01T21:48:26.930Z,37.10
2018-04-01T21:51:29.521Z,38.57
2018-04-01T21:54:32.055Z,43.70
2018-04-01T21:57:34.625Z,45.90
2018-04-01T22:00:37.182Z,43.60
2018-04-01T22:03:39.666Z,42.10
2018-04-01T22:06:42.170Z,41.77
2018-04-01T22:09:44.667Z,42.87
2018-04-01T22:12:47.149Z,45.10
2018-04-01T22:15:49.694Z,47.40
2018-04-01T22:18:52.175Z,45.00
2018-04-01T22:21:54.690Z,44.50
2018-04-01T22:24:57.191Z,43.00
2018-04-01T22:27:59.670Z,44.80
2018-04-01T22:31:02.220Z,44.20
2018-04-01T22:34:04.711Z,49.30
2018-04-01T22:37:07.152Z,48.90
2018-04-01T22:40:09.646Z,46.00
2018-04-01T22:43:12.146Z,43.20
2018-04-01T22:46:14.597Z,46.17
2018-04-01T22:49:17.083Z,49.57
2018-04-01T22:52:19.530Z,49.60
2018-04-01T22:55:22.087Z,51.73
2018-04-01T22:58:24.568Z,51.47
2018-04-01T23:01:27.111Z,52.27
2018-04-01T23:04:29.599Z,51.43
2018-04-01T23:07:32.127Z,52.20
2018-04-01T23:10:34.610Z,51.40
2018-04-01T23:13:37.152Z,51.40
2018-04-01T23:16:39.591Z,50.20
2018-04-01T23:19:42.052Z,48.70
2018-04-01T23:22:44.569Z,49.80
2018-04-01T23:25:47.096Z,51.03
2018-04-01T23:28:49.587Z,50.07
2018-04-01T23:31:52.089Z,49.40
2018-04-01T23:34:54.580Z,51.30
2018-04-01T23:37:57.143Z,52.40
2018-04-01T23:40:59.705Z,50.30
2018-04-01T23:44:02.161Z,51.40
2018-04-01T23:47:04.727Z,51.13
2018-04-01T23:50:07.235Z,48.53
2018-04-01T23:53:09.718Z,53.80
2018-04-01T23:56:12.175Z,50.90
2018-04-01T23:59:14.678Z,53.57
